logo
Search for airport 
image banner adimage banner adimage banner ad
image banner ad

FANC - Newcastle

Located in Newcastle, South Africa

ICAO - FANC, IATA - NCS

Data provided by Airmate  

General information

Coordinates: S27°46'22" E29°58'35"
Elevation is 4075 feet MSL.
Magnetic variation is -21° East
View others Airports in Kwazulu-Natal

Operational data

Special qualification required
Current time UTC:
Current local time:
Weather at : - ( 0 km )
METAR: KXSA 140435Z AUTO 00000KT 10SM CLR 06/02 A3003 RMK AO2 T00580017
View NOTAMs / SUP AIP / TFR affecting this airport [VIEW]
Communications frequencies: [VIEW]

Runways:

RWY identifierQFULength (ft)Width (ft)SurfaceLDA (ft)
1191°457241ASPH4593
29271°457241ASPH4593

Airport contact information

Address: Newcastle South Africa

Satellite view of FANC